createdAt,value
2022-10-01T00:00:31.046Z,3.63
2022-10-01T00:02:58.238Z,3.95
2022-10-01T00:05:32.095Z,3.70
2022-10-01T00:07:59.344Z,3.60
2022-10-01T00:10:33.004Z,3.85
2022-10-01T00:13:00.329Z,3.75
2022-10-01T00:15:34.106Z,4.28
2022-10-01T00:18:02.191Z,4.15
2022-10-01T00:20:29.464Z,4.00
2022-10-01T00:23:02.982Z,4.38
2022-10-01T00:25:30.549Z,4.82
2022-10-01T00:30:48.555Z,4.45
2022-10-01T00:33:22.111Z,4.38
2022-10-01T00:35:49.755Z,4.80
2022-10-01T00:40:50.254Z,5.63
2022-10-01T00:43:31.057Z,4.68
2022-10-01T00:46:06.201Z,6.00
2022-10-01T00:48:36.301Z,6.10
2022-10-01T00:51:03.534Z,6.68
2022-10-01T00:53:37.089Z,6.80
2022-10-01T00:56:07.071Z,7.85
2022-10-01T00:58:41.116Z,6.68
2022-10-01T01:01:08.335Z,7.13
2022-10-01T01:03:42.157Z,7.10
2022-10-01T01:06:09.849Z,6.45
2022-10-01T01:08:37.018Z,6.82
2022-10-01T01:11:24.107Z,7.30
2022-10-01T01:14:09.805Z,5.93
2022-10-01T01:16:46.088Z,6.30
2022-10-01T01:19:31.827Z,6.90
2022-10-01T01:22:08.083Z,6.38
2022-10-01T01:24:47.631Z,6.07
2022-10-01T01:27:23.184Z,6.28
2022-10-01T01:30:00.832Z,6.47
2022-10-01T01:32:38.084Z,6.80
2022-10-01T01:35:06.753Z,7.30
2022-10-01T01:37:43.088Z,5.55
2022-10-01T01:40:11.691Z,6.93
2022-10-01T01:42:48.114Z,7.30
2022-10-01T01:45:17.956Z,7.32
2022-10-01T01:47:53.204Z,7.35
2022-10-01T01:50:20.529Z,6.32
2022-10-01T01:52:54.267Z,5.07
2022-10-01T01:55:24.305Z,6.70
2022-10-01T01:57:58.052Z,7.20
2022-10-01T02:00:25.383Z,7.82
2022-10-01T02:02:54.512Z,7.57
2022-10-01T02:05:31.072Z,7.75
2022-10-01T02:08:28.042Z,8.93
2022-10-01T02:11:02.123Z,7.68
2022-10-01T02:13:32.333Z,9.57
2022-10-01T02:16:25.092Z,10.10
2022-10-01T02:19:05.688Z,10.60
2022-10-01T02:21:42.090Z,13.60
2022-10-01T02:24:09.377Z,12.90
2022-10-01T02:26:44.107Z,12.85
2022-10-01T02:29:19.979Z,16.42
2022-10-01T02:31:55.229Z,17.02
2022-10-01T02:34:23.521Z,16.42
2022-10-01T02:36:58.224Z,17.45
2022-10-01T02:39:26.515Z,17.63
2022-10-01T02:42:01.113Z,18.52
2022-10-01T02:44:31.547Z,19.33
2022-10-01T02:47:11.198Z,20.27
2022-10-01T02:49:40.108Z,19.85
2022-10-01T02:52:26.183Z,19.67
2022-10-01T02:55:11.066Z,21.50
2022-10-01T02:57:45.167Z,20.52
2022-10-01T03:00:13.879Z,20.73
2022-10-01T03:02:47.250Z,22.45
2022-10-01T03:05:15.305Z,22.85
2022-10-01T03:07:43.616Z,24.80
2022-10-01T03:10:18.128Z,24.13
2022-10-01T03:12:46.507Z,21.40
2022-10-01T03:15:21.182Z,24.83
2022-10-01T03:17:52.149Z,26.73
2022-10-01T03:20:19.461Z,28.48
2022-10-01T03:22:54.168Z,28.67
2022-10-01T03:25:21.627Z,30.25
2022-10-01T03:28:02.232Z,31.27
2022-10-01T03:30:36.141Z,30.00
2022-10-01T03:33:10.428Z,29.25
2022-10-01T03:35:37.614Z,33.92
2022-10-01T03:38:04.884Z,31.10
2022-10-01T03:40:41.184Z,31.25
2022-10-01T03:43:08.547Z,29.90
2022-10-01T03:45:35.732Z,27.65
2022-10-01T03:48:09.182Z,32.00
2022-10-01T03:50:36.715Z,32.67
2022-10-01T03:53:10.305Z,32.33
2022-10-01T03:55:37.483Z,32.60
2022-10-01T03:58:04.920Z,28.05
2022-10-01T04:00:38.202Z,27.35
2022-10-01T04:03:06.732Z,28.88
2022-10-01T04:05:40.249Z,30.67
2022-10-01T04:08:07.489Z,32.45
2022-10-01T04:10:34.708Z,29.38
2022-10-01T04:13:08.134Z,29.27
2022-10-01T04:15:35.528Z,29.15
2022-10-01T04:18:13.184Z,30.52
2022-10-01T04:20:55.124Z,28.45
2022-10-01T04:23:35.317Z,28.95
2022-10-01T04:26:10.090Z,30.77
2022-10-01T04:28:46.497Z,35.33
2022-10-01T04:31:33.345Z,29.38
2022-10-01T04:34:01.015Z,33.75
2022-10-01T04:36:35.138Z,27.83
2022-10-01T04:39:03.063Z,34.05
2022-10-01T04:41:31.519Z,34.35
2022-10-01T04:44:06.159Z,33.90
2022-10-01T04:46:33.372Z,32.88
2022-10-01T04:49:08.282Z,28.02
2022-10-01T04:51:35.847Z,26.58
2022-10-01T04:54:03.199Z,28.77
2022-10-01T04:56:37.180Z,30.77
2022-10-01T04:59:04.425Z,28.77
2022-10-01T05:01:39.474Z,27.85
2022-10-01T05:04:06.804Z,30.15
2022-10-01T05:06:33.917Z,28.05
2022-10-01T05:09:08.293Z,28.88
2022-10-01T05:11:35.775Z,27.48
2022-10-01T05:14:03.235Z,27.10
2022-10-01T05:16:37.372Z,26.25
2022-10-01T05:19:04.885Z,28.50
2022-10-01T05:21:38.279Z,27.52
2022-10-01T05:24:05.655Z,28.77
2022-10-01T05:26:32.996Z,26.10
2022-10-01T05:29:07.321Z,26.67
2022-10-01T05:31:34.896Z,29.15
2022-10-01T05:34:02.343Z,26.77
2022-10-01T05:36:36.192Z,25.60
2022-10-01T05:39:03.762Z,23.25
2022-10-01T05:44:06.092Z,22.73
2022-10-01T05:46:40.332Z,22.83
2022-10-01T05:49:08.327Z,20.95
2022-10-01T05:51:36.548Z,21.65
2022-10-01T05:54:11.423Z,20.40
2022-10-01T05:56:38.681Z,20.55
2022-10-01T05:59:06.988Z,18.35
2022-10-01T06:01:41.258Z,20.95
2022-10-01T06:04:10.676Z,20.67
2022-10-01T06:06:44.360Z,19.50
2022-10-01T06:09:11.976Z,20.58
2022-10-01T06:14:13.326Z,18.40
2022-10-01T06:16:40.542Z,16.52
2022-10-01T06:19:07.784Z,18.80
2022-10-01T06:21:42.170Z,16.50
2022-10-01T06:24:09.429Z,17.73
2022-10-01T06:26:44.203Z,18.05
2022-10-01T06:29:18.051Z,16.65
2022-10-01T06:31:52.318Z,14.43
2022-10-01T06:34:19.532Z,16.13
2022-10-01T06:36:46.815Z,16.33
2022-10-01T06:39:21.445Z,16.35
2022-10-01T06:41:49.061Z,15.75
2022-10-01T06:46:50.191Z,14.45
2022-10-01T06:49:20.536Z,14.23
2022-10-01T06:52:13.448Z,14.00
2022-10-01T06:54:40.649Z,15.50
2022-10-01T06:57:07.811Z,15.48
2022-10-01T06:59:44.215Z,15.48
2022-10-01T07:02:20.879Z,14.38
2022-10-01T07:04:55.353Z,14.38
2022-10-01T07:07:23.716Z,14.75
2022-10-01T07:09:53.184Z,14.90
2022-10-01T07:12:27.233Z,13.73
2022-10-01T07:14:54.688Z,14.10
2022-10-01T07:17:22.446Z,14.15
2022-10-01T07:19:56.284Z,14.30
2022-10-01T07:22:24.729Z,14.57
2022-10-01T07:24:59.236Z,14.93
2022-10-01T07:27:33.294Z,13.25
2022-10-01T07:30:14.291Z,13.02
2022-10-01T07:32:44.906Z,13.20
2022-10-01T07:35:12.067Z,12.77
2022-10-01T07:37:46.284Z,14.57
2022-10-01T07:40:16.265Z,12.10
2022-10-01T07:42:50.215Z,11.18
2022-10-01T07:45:17.487Z,13.38
2022-10-01T07:47:44.613Z,10.85
2022-10-01T07:50:18.366Z,11.30
2022-10-01T07:52:45.672Z,10.82
2022-10-01T07:55:14.201Z,9.15
2022-10-01T07:57:48.239Z,11.00
2022-10-01T08:00:15.628Z,9.35
2022-10-01T08:02:47.177Z,9.68
2022-10-01T08:05:24.212Z,9.80
2022-10-01T08:07:58.113Z,9.05
2022-10-01T08:10:32.276Z,8.88
2022-10-01T08:13:07.288Z,9.07
2022-10-01T08:15:34.572Z,8.93
2022-10-01T08:18:03.180Z,8.30
2022-10-01T08:20:37.225Z,9.10
2022-10-01T08:23:04.766Z,8.35
2022-10-01T08:28:07.406Z,8.10
2022-10-01T08:30:34.607Z,7.07
2022-10-01T08:33:08.551Z,7.80
2022-10-01T08:35:35.842Z,6.95
2022-10-01T08:38:03.913Z,6.80
2022-10-01T08:40:44.421Z,6.50
2022-10-01T08:43:14.692Z,7.70
2022-10-01T08:45:52.249Z,6.60
2022-10-01T08:48:28.138Z,6.43
2022-10-01T08:51:04.295Z,6.57
2022-10-01T08:53:44.165Z,6.90
2022-10-01T08:56:38.429Z,7.35
2022-10-01T08:59:10.619Z,5.93
2022-10-01T09:01:44.394Z,5.65
2022-10-01T09:04:11.859Z,5.55
2022-10-01T09:06:46.294Z,5.88
2022-10-01T09:09:32.288Z,5.72
2022-10-01T09:12:12.304Z,5.00
2022-10-01T09:14:42.233Z,5.07
2022-10-01T09:17:22.271Z,5.55
2022-10-01T09:20:05.224Z,5.20
2022-10-01T09:22:42.240Z,5.57
2022-10-01T09:25:28.224Z,5.72
2022-10-01T09:28:25.347Z,5.05
2022-10-01T09:31:18.049Z,4.70
2022-10-01T09:33:56.291Z,5.57
2022-10-01T09:36:41.874Z,5.18
2022-10-01T09:39:33.302Z,4.60
2022-10-01T09:42:00.652Z,4.90
2022-10-01T09:44:35.352Z,5.03
2022-10-01T09:47:02.496Z,4.82
2022-10-01T09:49:41.348Z,5.32
2022-10-01T09:52:13.777Z,4.90
2022-10-01T09:54:50.288Z,4.93
2022-10-01T09:57:25.570Z,4.53
2022-10-01T10:00:00.287Z,3.92
2022-10-01T10:02:33.994Z,5.10
2022-10-01T10:05:08.395Z,5.10
2022-10-01T10:07:35.713Z,4.43
2022-10-01T10:10:26.361Z,4.88
2022-10-01T10:13:17.282Z,4.05
2022-10-01T10:16:05.322Z,4.22
2022-10-01T10:18:35.605Z,3.85
2022-10-01T10:21:10.404Z,4.20
2022-10-01T10:23:46.912Z,3.80
2022-10-01T10:26:27.383Z,4.40
2022-10-01T10:29:02.207Z,3.78
2022-10-01T10:31:38.494Z,3.22
2022-10-01T10:34:05.600Z,3.53
2022-10-01T10:36:35.045Z,3.47
2022-10-01T10:39:10.289Z,3.40
2022-10-01T10:41:38.000Z,4.10
2022-10-01T10:44:14.287Z,3.53
2022-10-01T10:46:45.907Z,3.33
2022-10-01T10:49:40.272Z,3.05
2022-10-01T10:52:19.732Z,3.90
2022-10-01T10:54:55.385Z,3.22
2022-10-01T10:57:30.034Z,2.85
2022-10-01T11:00:08.305Z,3.00
2022-10-01T11:05:04.350Z,3.15
2022-10-01T11:07:38.314Z,3.50
2022-10-01T11:10:30.343Z,3.35
2022-10-01T11:13:06.841Z,3.20
2022-10-01T11:16:03.441Z,3.17
2022-10-01T11:18:33.762Z,2.65
2022-10-01T11:21:30.263Z,3.08
2022-10-01T11:24:13.371Z,3.10
2022-10-01T11:27:05.232Z,3.20
2022-10-01T11:30:08.263Z,3.10
2022-10-01T11:32:52.241Z,3.10
2022-10-01T11:35:45.605Z,2.53
2022-10-01T11:38:38.368Z,3.35
2022-10-01T11:41:22.643Z,2.58
2022-10-01T11:44:01.322Z,2.97
2022-10-01T11:46:29.606Z,3.00
2022-10-01T11:49:09.359Z,2.85
2022-10-01T11:51:42.443Z,2.50
2022-10-01T11:54:18.377Z,3.33
2022-10-01T11:57:08.262Z,2.92
2022-10-01T11:59:47.234Z,2.60
2022-10-01T12:02:31.669Z,2.90
2022-10-01T12:05:05.295Z,3.22
2022-10-01T12:07:32.624Z,2.40
2022-10-01T12:10:25.260Z,2.63
2022-10-01T12:12:57.462Z,2.80
2022-10-01T12:15:36.251Z,2.75
2022-10-01T12:18:09.070Z,2.70
2022-10-01T12:20:45.263Z,3.15
2022-10-01T12:23:18.195Z,2.80
2022-10-01T12:26:11.219Z,3.08
2022-10-01T12:29:04.337Z,2.38
2022-10-01T12:31:48.486Z,2.72
2022-10-01T12:34:22.570Z,2.67
2022-10-01T12:36:56.378Z,2.53
2022-10-01T12:39:26.572Z,2.78
2022-10-01T12:42:06.493Z,2.88
2022-10-01T12:44:54.218Z,2.40
2022-10-01T12:47:35.223Z,2.80
2022-10-01T12:50:20.948Z,2.58
2022-10-01T12:52:54.215Z,2.45
2022-10-01T12:55:21.712Z,2.15
2022-10-01T12:57:55.258Z,2.80
2022-10-01T13:00:25.065Z,2.40
2022-10-01T13:02:52.606Z,2.35
2022-10-01T13:08:01.643Z,2.20
2022-10-01T13:10:38.427Z,2.70
2022-10-01T13:13:08.328Z,2.60
2022-10-01T13:15:44.268Z,2.63
2022-10-01T13:18:11.568Z,2.30
2022-10-01T13:20:50.232Z,2.28
2022-10-01T13:23:24.207Z,2.60
2022-10-01T13:26:13.241Z,2.17
2022-10-01T13:28:50.144Z,2.30
2022-10-01T13:31:27.318Z,2.75
2022-10-01T13:33:55.943Z,2.53
2022-10-01T13:36:37.765Z,2.30
2022-10-01T13:39:05.418Z,2.30
2022-10-01T13:41:42.358Z,2.20
2022-10-01T13:44:11.297Z,2.50
2022-10-01T13:46:56.253Z,2.83
2022-10-01T13:49:25.791Z,2.35
2022-10-01T13:52:00.244Z,2.13
2022-10-01T13:54:30.245Z,2.72
2022-10-01T13:57:14.401Z,1.08
2022-10-01T13:59:43.378Z,1.40
2022-10-01T14:02:43.302Z,1.40
2022-10-01T14:05:23.333Z,1.40
2022-10-01T14:08:01.365Z,1.60
2022-10-01T14:10:33.828Z,1.55
2022-10-01T14:13:29.288Z,2.08
2022-10-01T14:16:00.266Z,2.20
2022-10-01T14:18:37.421Z,2.50
2022-10-01T14:21:04.697Z,2.08
2022-10-01T14:23:47.057Z,2.08
2022-10-01T14:26:17.611Z,2.70
2022-10-01T14:29:23.422Z,2.47
2022-10-01T14:32:00.108Z,2.60
2022-10-01T14:34:52.584Z,2.50
2022-10-01T14:37:20.569Z,2.35
2022-10-01T14:39:47.858Z,2.42
2022-10-01T14:42:23.554Z,2.28
2022-10-01T14:44:50.805Z,2.38
2022-10-01T14:47:20.331Z,2.50
2022-10-01T14:49:54.348Z,19.02
2022-10-01T14:52:21.603Z,3.25
2022-10-01T14:54:55.641Z,3.42
2022-10-01T14:57:26.062Z,2.88
2022-10-01T14:59:53.530Z,3.55
2022-10-01T15:02:28.463Z,4.72
2022-10-01T15:05:03.313Z,9.27
2022-10-01T15:07:36.861Z,7.50
2022-10-01T15:10:14.259Z,5.95
2022-10-01T15:12:41.884Z,3.70
2022-10-01T15:17:42.874Z,3.38
2022-10-01T15:20:12.177Z,3.03
2022-10-01T15:22:46.487Z,3.10
2022-10-01T15:25:21.775Z,3.58
2022-10-01T15:27:56.680Z,2.78
2022-10-01T15:30:30.444Z,2.70
2022-10-01T15:33:04.487Z,2.78
2022-10-01T15:35:32.499Z,2.72
2022-10-01T15:38:00.713Z,2.90
2022-10-01T15:40:35.411Z,3.20
2022-10-01T15:43:08.670Z,3.40
2022-10-01T15:45:43.460Z,3.03
2022-10-01T15:48:30.156Z,3.40
2022-10-01T15:51:09.369Z,3.40
2022-10-01T15:53:36.549Z,3.10
2022-10-01T15:56:17.378Z,3.20
2022-10-01T15:58:46.804Z,2.75
2022-10-01T16:01:23.445Z,2.83
2022-10-01T16:03:50.727Z,3.10
2022-10-01T16:06:26.415Z,3.20
2022-10-01T16:09:00.212Z,2.90
2022-10-01T16:11:38.378Z,2.83
2022-10-01T16:14:29.499Z,2.80
2022-10-01T16:17:23.471Z,2.90
2022-10-01T16:19:56.767Z,2.92
2022-10-01T16:22:30.410Z,2.40
2022-10-01T16:24:58.718Z,2.90
2022-10-01T16:27:37.560Z,2.83
2022-10-01T16:30:14.375Z,3.08
2022-10-01T16:32:55.422Z,3.00
2022-10-01T16:35:24.037Z,2.92
2022-10-01T16:37:54.737Z,2.72
2022-10-01T16:40:30.415Z,3.00
2022-10-01T16:42:58.873Z,2.88
2022-10-01T16:45:34.573Z,2.90
2022-10-01T16:48:01.830Z,3.35
2022-10-01T16:50:36.452Z,3.17
2022-10-01T16:53:04.344Z,3.15
2022-10-01T16:55:44.366Z,2.97
2022-10-01T16:58:19.361Z,3.22
2022-10-01T17:00:46.747Z,3.30
2022-10-01T17:03:18.583Z,3.70
2022-10-01T17:05:52.516Z,3.33
2022-10-01T17:08:19.952Z,3.05
2022-10-01T17:11:10.657Z,3.25
2022-10-01T17:13:39.707Z,3.45
2022-10-01T17:16:13.421Z,3.05
2022-10-01T17:18:40.713Z,3.45
2022-10-01T17:21:09.833Z,3.60
2022-10-01T17:23:43.708Z,3.60
2022-10-01T17:26:10.898Z,3.78
2022-10-01T17:28:44.455Z,3.63
2022-10-01T17:31:18.499Z,3.88
2022-10-01T17:33:52.606Z,3.63
2022-10-01T17:36:19.871Z,3.63
2022-10-01T17:38:47.084Z,3.78
2022-10-01T17:41:21.483Z,4.05
2022-10-01T17:43:48.681Z,3.67
2022-10-01T17:46:22.728Z,3.85
2022-10-01T17:48:50.856Z,4.20
2022-10-01T17:51:18.176Z,4.30
2022-10-01T17:53:52.442Z,4.43
2022-10-01T17:56:19.873Z,5.10
2022-10-01T17:58:47.573Z,4.80
2022-10-01T18:03:48.896Z,4.07
2022-10-01T18:06:22.486Z,4.32
2022-10-01T18:08:57.037Z,4.30
2022-10-01T18:11:32.445Z,4.53
2022-10-01T18:13:59.789Z,3.90
2022-10-01T18:16:36.544Z,4.15
2022-10-01T18:21:58.517Z,3.70
2022-10-01T18:24:32.356Z,3.42
2022-10-01T18:26:59.519Z,3.65
2022-10-01T18:29:39.340Z,3.50
2022-10-01T18:32:21.521Z,3.60
2022-10-01T18:35:04.317Z,3.28
2022-10-01T18:37:37.708Z,3.33
2022-10-01T18:40:24.334Z,3.60
2022-10-01T18:43:05.133Z,3.35
2022-10-01T18:45:57.390Z,2.80
2022-10-01T18:48:45.063Z,3.30
2022-10-01T18:51:18.373Z,3.70
2022-10-01T18:54:04.040Z,3.35
2022-10-01T18:56:42.335Z,3.35
2022-10-01T19:02:02.543Z,3.00
2022-10-01T19:04:29.910Z,3.60
2022-10-01T19:07:08.385Z,3.65
2022-10-01T19:09:41.777Z,3.47
2022-10-01T19:12:28.473Z,3.60
2022-10-01T19:15:04.391Z,3.63
2022-10-01T19:17:40.733Z,3.85
2022-10-01T19:20:17.856Z,4.35
2022-10-01T19:23:10.376Z,4.07
2022-10-01T19:25:41.246Z,3.50
2022-10-01T19:28:21.490Z,3.17
2022-10-01T19:31:10.619Z,3.55
2022-10-01T19:33:54.355Z,3.53
2022-10-01T19:36:41.726Z,3.65
2022-10-01T19:39:16.659Z,3.50
2022-10-01T19:41:54.432Z,3.67
2022-10-01T19:44:25.048Z,3.63
2022-10-01T19:46:59.493Z,3.50
2022-10-01T19:49:28.306Z,3.42
2022-10-01T19:52:06.428Z,3.70
2022-10-01T19:54:35.436Z,3.70
2022-10-01T19:57:27.431Z,4.20
2022-10-01T20:00:11.498Z,3.85
2022-10-01T20:02:57.554Z,3.50
2022-10-01T20:05:35.893Z,3.80
2022-10-01T20:08:09.538Z,4.20
2022-10-01T20:10:49.366Z,4.20
2022-10-01T20:13:16.991Z,4.00
2022-10-01T20:18:28.001Z,4.25
2022-10-01T20:21:22.374Z,5.13
2022-10-01T20:23:58.614Z,4.38
2022-10-01T20:26:48.380Z,5.72
2022-10-01T20:29:54.580Z,5.05
2022-10-01T20:32:36.374Z,4.55
2022-10-01T20:35:19.075Z,5.15
2022-10-01T20:37:58.378Z,4.78
2022-10-01T20:40:49.502Z,4.78
2022-10-01T20:43:29.373Z,4.25
2022-10-01T20:45:57.214Z,5.18
2022-10-01T20:48:43.369Z,4.88
2022-10-01T20:51:13.119Z,5.00
2022-10-01T20:53:56.377Z,5.18
2022-10-01T20:56:45.034Z,5.43
2022-10-01T20:59:26.383Z,5.70
2022-10-01T21:02:02.701Z,5.45
2022-10-01T21:04:39.369Z,5.40
2022-10-01T21:07:18.208Z,5.93
2022-10-01T21:09:54.372Z,5.20
2022-10-01T21:12:33.443Z,5.30
2022-10-01T21:15:08.408Z,6.22
2022-10-01T21:17:56.755Z,5.50
2022-10-01T21:20:51.618Z,5.70
2022-10-01T21:23:18.971Z,5.07
2022-10-01T21:26:11.391Z,5.35
2022-10-01T21:28:55.914Z,5.53
2022-10-01T21:31:47.415Z,5.32
2022-10-01T21:34:19.977Z,6.03
2022-10-01T21:37:13.380Z,6.03
2022-10-01T21:39:49.428Z,5.70
2022-10-01T21:42:36.547Z,6.05
2022-10-01T21:45:13.237Z,5.95
2022-10-01T21:47:57.394Z,6.60
2022-10-01T21:50:27.774Z,5.15
2022-10-01T21:53:07.431Z,6.00
2022-10-01T21:55:55.909Z,5.65
2022-10-01T21:58:48.885Z,5.72
2022-10-01T22:01:23.632Z,6.03
2022-10-01T22:04:01.438Z,5.70
2022-10-01T22:06:36.406Z,6.57
2022-10-01T22:09:15.533Z,6.15
2022-10-01T22:11:48.183Z,6.32
2022-10-01T22:14:23.558Z,5.93
2022-10-01T22:16:53.254Z,6.18
2022-10-01T22:19:23.251Z,6.18
2022-10-01T22:22:00.538Z,6.40
2022-10-01T22:24:31.108Z,6.40
2022-10-01T22:27:13.565Z,6.15
2022-10-01T22:29:54.504Z,6.35
2022-10-01T22:32:38.484Z,6.63
2022-10-01T22:35:09.385Z,5.93
2022-10-01T22:38:00.558Z,6.72
2022-10-01T22:40:33.521Z,6.03
2022-10-01T22:43:10.635Z,7.00
2022-10-01T22:45:58.043Z,6.53
2022-10-01T22:48:46.583Z,6.53
2022-10-01T22:51:32.047Z,6.53
2022-10-01T22:54:28.504Z,6.85
2022-10-01T22:57:07.871Z,6.63
2022-10-01T23:00:00.582Z,6.70
2022-10-01T23:02:36.443Z,6.82
2022-10-01T23:05:25.533Z,6.50
2022-10-01T23:08:02.423Z,7.20
2022-10-01T23:10:51.536Z,6.90
2022-10-01T23:13:36.054Z,7.13
2022-10-01T23:16:15.665Z,7.07
2022-10-01T23:18:46.058Z,7.22
2022-10-01T23:21:25.486Z,6.85
2022-10-01T23:24:18.876Z,6.93
2022-10-01T23:27:12.505Z,6.32
2022-10-01T23:29:55.487Z,7.18
2022-10-01T23:32:35.550Z,6.72
2022-10-01T23:35:02.693Z,6.97
2022-10-01T23:37:54.672Z,7.25
2022-10-01T23:40:23.174Z,7.05
2022-10-01T23:43:02.565Z,6.88
2022-10-01T23:45:29.677Z,7.28
2022-10-01T23:48:06.536Z,7.00
2022-10-01T23:50:57.048Z,7.63
2022-10-01T23:53:38.573Z,7.10
2022-10-01T23:56:27.012Z,7.05
2022-10-01T23:59:07.533Z,7.18
